Time;durP1;ratioP1;P1;durP2;ratioP2;P2;SDS_P1;SDS_P2;PMS_P1;PMS_P2;Temp;Humidity;BMP_temperature;BMP_pressure;BME280_temperature;BME280_humidity;BME280_pressure;Samples;Min_cycle;Max_cycle;Signal;HPM_P1;HPM_P2
2022/08/25 00:01:51;;;;;;;13.38;6.47;;;;;;;20.61;100.00;98465.12;1737975;80;28117;-88
2022/08/25 00:04:18;;;;;;;12.95;5.53;;;;;;;20.51;100.00;98464.45;1726187;80;28123;-87
2022/08/25 00:06:46;;;;;;;11.93;6.08;;;;;;;20.41;100.00;98465.97;1756814;78;28239;-88
2022/08/25 00:09:15;;;;;;;9.55;5.65;;;;;;;20.34;100.00;98461.02;1743885;78;28276;-88
2022/08/25 00:11:42;;;;;;;9.85;5.30;;;;;;;20.30;100.00;98458.31;1745078;79;28143;-88
2022/08/25 00:14:12;;;;;;;9.80;5.10;;;;;;;20.24;100.00;98456.31;1757641;78;28115;-88
2022/08/25 00:16:39;;;;;;;13.88;6.20;;;;;;;20.22;100.00;98451.69;1759193;79;28079;-87
2022/08/25 00:19:15;;;;;;;11.73;5.80;;;;;;;20.16;100.00;98454.17;1751582;79;28115;-87
2022/08/25 00:21:45;;;;;;;10.43;5.37;;;;;;;20.12;100.00;98456.84;1737977;78;28140;-87
2022/08/25 00:24:12;;;;;;;9.73;5.67;;;;;;;20.09;100.00;98456.66;1760947;78;28192;-87
2022/08/25 00:26:42;;;;;;;10.40;5.65;;;;;;;20.06;100.00;98454.35;1739182;79;28090;-87
2022/08/25 00:31:42;;;;;;;8.48;5.17;;;;;;;20.11;100.00;98457.83;1863672;75;85799;-86
2022/08/25 00:34:13;;;;;;;8.63;4.72;;;;;;;20.05;100.00;98459.33;1832567;77;28492;-86
2022/08/25 00:36:40;;;;;;;11.93;5.67;;;;;;;20.05;100.00;98460.66;1841689;77;28131;-85
2022/08/25 00:39:09;;;;;;;11.83;5.55;;;;;;;19.99;100.00;98451.52;1841620;77;28049;-86
2022/08/25 00:41:39;;;;;;;13.00;7.08;;;;;;;20.00;100.00;98454.52;1834627;77;28128;-86
2022/08/25 00:44:16;;;;;;;10.10;5.87;;;;;;;19.96;100.00;98453.69;1833517;77;28098;-86
2022/08/25 00:46:51;;;;;;;13.50;8.53;;;;;;;19.97;100.00;98451.34;1805210;77;28073;-86
2022/08/25 00:49:42;;;;;;;16.42;8.55;;;;;;;19.87;100.00;98445.37;1835688;77;28093;-86
2022/08/25 00:52:15;;;;;;;13.28;7.92;;;;;;;19.80;100.00;98446.52;1836168;76;28207;-85
2022/08/25 00:54:51;;;;;;;13.00;7.97;;;;;;;19.76;100.00;98443.03;1828829;77;28181;-85
2022/08/25 00:57:21;;;;;;;15.03;7.78;;;;;;;19.73;100.00;98443.38;1842465;77;28104;-86
2022/08/25 00:59:50;;;;;;;12.13;7.22;;;;;;;19.75;100.00;98440.04;1828990;77;28104;-85
2022/08/25 01:02:25;;;;;;;;;;;;;;;19.79;100.00;98432.09;1843807;77;28076;-86
2022/08/25 01:04:57;;;;;;;16.48;7.95;;;;;;;19.78;100.00;98437.08;1840927;77;24611;-86
2022/08/25 01:07:29;;;;;;;19.60;8.05;;;;;;;19.75;100.00;98435.56;1829925;77;28104;-86
2022/08/25 01:09:56;;;;;;;15.65;8.33;;;;;;;19.81;100.00;98434.07;1841967;77;28063;-86
2022/08/25 01:12:22;;;;;;;16.00;8.75;;;;;;;19.81;100.00;98436.73;1835250;77;28141;-86
2022/08/25 01:14:52;;;;;;;18.37;9.98;;;;;;;19.78;100.00;98431.76;1840052;77;28065;-86
2022/08/25 01:17:20;;;;;;;15.13;9.08;;;;;;;19.80;100.00;98437.75;1833918;77;28052;-86
2022/08/25 01:19:49;;;;;;;13.68;8.30;;;;;;;19.86;100.00;98439.72;1845855;77;28041;-87
2022/08/25 01:22:16;;;;;;;15.68;10.00;;;;;;;19.92;100.00;98435.08;1831564;77;28171;-86
2022/08/25 01:24:59;;;;;;;15.80;9.68;;;;;;;19.91;100.00;98436.09;1833510;77;28129;-86
2022/08/25 01:27:32;;;;;;;15.38;9.93;;;;;;;19.90;100.00;98431.77;1829851;77;28148;-87
2022/08/25 01:29:58;;;;;;;17.25;9.85;;;;;;;19.93;100.00;98436.24;1830538;77;28025;-86
2022/08/25 01:32:28;;;;;;;11.85;8.45;;;;;;;19.92;100.00;98427.94;1800336;77;28070;-86
2022/08/25 01:34:55;;;;;;;14.65;8.88;;;;;;;19.95;100.00;98428.95;1829990;77;28093;-87
2022/08/25 01:37:21;;;;;;;13.53;9.18;;;;;;;19.94;100.00;98429.94;1820049;77;28179;-87
2022/08/25 01:39:47;;;;;;;12.20;9.00;;;;;;;19.96;100.00;98430.62;1820953;77;28037;-87
2022/08/25 01:42:48;;;;;;;10.60;8.30;;;;;;;19.97;100.00;98428.77;1830064;77;28138;-87
2022/08/25 01:45:14;;;;;;;10.20;7.58;;;;;;;20.11;100.00;98423.29;1825771;76;28090;-87
2022/08/25 01:47:42;;;;;;;11.43;8.95;;;;;;;20.31;100.00;98427.25;1758937;76;28089;-87
2022/08/25 01:50:10;;;;;;;9.90;8.08;;;;;;;20.38;100.00;98429.10;1822664;77;28014;-87
2022/08/25 01:52:54;;;;;;;10.32;7.53;;;;;;;20.39;100.00;98425.95;1825364;77;28167;-87
2022/08/25 01:55:22;;;;;;;8.65;7.75;;;;;;;20.40;100.00;98428.94;1741133;80;28181;-87
2022/08/25 01:57:48;;;;;;;8.75;7.37;;;;;;;20.48;100.00;98430.73;1823108;77;28117;-87
2022/08/25 02:00:16;;;;;;;9.33;8.35;;;;;;;20.57;100.00;98423.06;1832488;77;28136;-87
2022/08/25 02:02:43;;;;;;;12.30;7.92;;;;;;;20.65;100.00;98417.73;1830735;77;28160;-87
2022/08/25 02:05:16;;;;;;;9.43;7.53;;;;;;;20.69;100.00;98417.22;1828953;77;28410;-87
2022/08/25 02:07:43;;;;;;;11.48;7.72;;;;;;;20.71;100.00;98421.04;1825058;77;28100;-87
2022/08/25 02:10:12;;;;;;;8.50;7.60;;;;;;;20.68;100.00;98420.03;1830857;77;28052;-86
2022/08/25 02:12:45;;;;;;;9.53;7.92;;;;;;;20.70;100.00;98416.22;1825910;77;28097;-87
2022/08/25 02:15:11;;;;;;;10.45;7.85;;;;;;;20.71;100.00;98416.55;1821402;77;28102;-87
2022/08/25 02:17:38;;;;;;;11.90;8.68;;;;;;;20.72;100.00;98414.73;1835707;77;28038;-87
2022/08/25 02:20:07;;;;;;;9.15;7.80;;;;;;;20.70;100.00;98406.91;1832697;77;28121;-86
2022/08/25 02:22:33;;;;;;;9.75;7.53;;;;;;;20.69;100.00;98407.91;1825153;77;28128;-86
2022/08/25 02:25:05;;;;;;;11.70;8.00;;;;;;;20.66;100.00;98412.25;1830082;77;28079;-86
2022/08/25 02:27:34;;;;;;;;;;;;;;;20.60;100.00;98411.60;1834332;77;28143;-87
2022/08/25 02:30:00;;;;;;;10.82;8.45;;;;;;;20.45;100.00;98407.50;1815888;77;26080;-86
2022/08/25 02:32:30;;;;;;;13.43;8.55;;;;;;;20.47;100.00;98417.94;1820592;77;28087;-87
2022/08/25 02:34:59;;;;;;;10.23;7.97;;;;;;;20.42;100.00;98427.76;1825290;77;28167;-86
2022/08/25 02:37:30;;;;;;;10.70;9.58;;;;;;;20.37;100.00;98427.94;1824319;77;28112;-86
2022/08/25 02:40:00;;;;;;;8.25;7.33;;;;;;;20.27;100.00;98428.09;1824531;77;28160;-87
2022/08/25 02:42:30;;;;;;;10.13;8.15;;;;;;;20.30;100.00;98421.59;1822791;77;28588;-86
2022/08/25 02:44:56;;;;;;;10.98;7.78;;;;;;;20.30;100.00;98425.08;1823380;77;28133;-87
2022/08/25 02:47:22;;;;;;;12.53;8.35;;;;;;;20.28;100.00;98425.77;1827862;77;28000;-86
2022/08/25 02:49:48;;;;;;;10.90;7.95;;;;;;;20.28;100.00;98427.09;1831662;76;28124;-86
2022/08/25 02:52:20;;;;;;;11.03;7.97;;;;;;;20.20;100.00;98423.11;1823894;77;43538;-86
2022/08/25 02:54:49;;;;;;;12.58;8.65;;;;;;;20.18;100.00;98417.64;1824450;77;28104;-87
2022/08/25 02:57:15;;;;;;;11.03;8.68;;;;;;;20.03;100.00;98413.48;1825825;77;28088;-86
2022/08/25 02:59:41;;;;;;;11.40;8.03;;;;;;;20.02;100.00;98417.13;1836209;77;28148;-86
2022/08/25 03:02:07;;;;;;;11.55;9.08;;;;;;;20.10;100.00;98421.13;1827430;77;28080;-87
2022/08/25 03:04:35;;;;;;;9.13;8.15;;;;;;;20.12;100.00;98425.79;1832662;77;28140;-87
2022/08/25 03:07:11;;;;;;;16.15;9.03;;;;;;;20.17;100.00;98426.61;1823679;77;28100;-87
2022/08/25 03:09:39;;;;;;;13.70;9.50;;;;;;;20.16;100.00;98425.78;1816954;77;28036;-87
2022/08/25 03:12:06;;;;;;;10.93;9.28;;;;;;;20.08;100.00;98424.94;1828457;77;28190;-87
2022/08/25 03:14:35;;;;;;;13.93;9.88;;;;;;;20.11;100.00;98416.16;1828908;77;28113;-86
2022/08/25 03:17:01;;;;;;;13.28;9.18;;;;;;;20.14;100.00;98422.45;1759713;79;28082;-87
2022/08/25 03:19:27;;;;;;;13.28;9.93;;;;;;;20.20;100.00;98416.47;1821688;77;28178;-88
2022/08/25 03:21:58;;;;;;;9.78;8.05;;;;;;;20.18;100.00;98418.48;1830139;76;28167;-87
2022/08/25 03:24:25;;;;;;;12.80;9.28;;;;;;;20.18;100.00;98418.48;1825469;77;28076;-87
2022/08/25 03:26:52;;;;;;;10.35;8.65;;;;;;;20.21;100.00;98423.94;1815261;77;28061;-87
2022/08/25 03:29:23;;;;;;;13.40;8.28;;;;;;;20.24;100.00;98420.44;1823625;77;28068;-87
2022/08/25 03:31:53;;;;;;;11.63;9.15;;;;;;;20.30;100.00;98418.94;1794241;77;28059;-87
2022/08/25 03:34:23;;;;;;;11.40;9.00;;;;;;;20.32;100.00;98419.14;1775164;79;28163;-87
2022/08/25 03:36:56;;;;;;;13.28;9.93;;;;;;;20.34;100.00;98424.30;1783143;79;28029;-87
2022/08/25 03:39:23;;;;;;;14.43;9.30;;;;;;;20.33;100.00;98424.80;1774081;79;28162;-87
2022/08/25 03:41:53;;;;;;;12.37;9.10;;;;;;;20.33;100.00;98418.64;1767467;79;28011;-87
2022/08/25 03:44:24;;;;;;;11.70;8.88;;;;;;;20.36;100.00;98421.78;1771091;79;28055;-87
2022/08/25 03:46:56;;;;;;;13.20;9.60;;;;;;;20.43;100.00;98416.63;1786693;79;28096;-87
2022/08/25 03:49:23;;;;;;;17.82;10.70;;;;;;;20.39;100.00;98418.80;1770757;79;28187;-87
2022/08/25 03:51:56;;;;;;;13.75;9.63;;;;;;;20.33;100.00;98419.98;1776700;79;28081;-86
2022/08/25 03:54:22;;;;;;;17.02;10.48;;;;;;;20.32;100.00;98420.47;1770451;79;28177;-86
2022/08/25 03:56:48;;;;;;;16.57;11.03;;;;;;;20.27;100.00;98424.11;1776562;79;28047;-86
2022/08/25 03:59:15;;;;;;;16.48;11.00;;;;;;;20.23;100.00;98419.30;1774045;79;28063;-87
2022/08/25 04:01:43;;;;;;;15.45;9.58;;;;;;;20.23;100.00;98421.45;1777652;79;28103;-87
2022/08/25 04:04:12;;;;;;;15.90;10.82;;;;;;;20.29;100.00;98423.95;1776090;79;28036;-87
2022/08/25 04:06:42;;;;;;;16.27;10.80;;;;;;;20.33;100.00;98421.30;1779729;79;46424;-86
2022/08/25 04:09:10;;;;;;;20.65;10.65;;;;;;;20.31;100.00;98420.60;1777414;79;28065;-86
2022/08/25 04:11:36;;;;;;;20.17;11.20;;;;;;;20.33;100.00;98415.98;1778178;79;28140;-86
2022/08/25 04:14:03;;;;;;;19.82;11.35;;;;;;;20.35;100.00;98418.79;1778611;79;28138;-86
2022/08/25 04:16:32;;;;;;;17.12;10.50;;;;;;;20.38;100.00;98418.97;1771518;79;28075;-86
2022/08/25 04:19:01;;;;;;;23.10;11.22;;;;;;;20.41;100.00;98417.28;1773278;79;28143;-86
2022/08/25 04:21:37;;;;;;;22.05;11.88;;;;;;;20.41;100.00;98414.63;1781173;79;28192;-86
2022/08/25 04:24:05;;;;;;;17.15;10.08;;;;;;;20.37;100.00;98410.66;1770979;79;28120;-87
2022/08/25 04:26:44;;;;;;;20.70;10.78;;;;;;;20.40;100.00;98414.33;1775304;79;28084;-86
2022/08/25 04:29:13;;;;;;;23.18;11.12;;;;;;;20.42;100.00;98414.47;1775831;79;28054;-86
2022/08/25 04:31:43;;;;;;;21.17;10.98;;;;;;;20.46;100.00;98409.13;1783531;78;28107;-87
2022/08/25 04:34:12;;;;;;;25.40;12.70;;;;;;;20.51;100.00;98403.30;1788413;79;27994;-86
2022/08/25 04:36:39;;;;;;;24.10;11.90;;;;;;;20.52;100.00;98398.31;1780755;78;28156;-86
2022/08/25 04:39:12;;;;;;;22.05;12.35;;;;;;;20.49;100.00;98405.31;1788180;79;28085;-86
2022/08/25 04:41:42;;;;;;;22.62;12.85;;;;;;;20.34;100.00;98406.53;1778878;79;28053;-86
2022/08/25 04:44:09;;;;;;;21.70;11.57;;;;;;;20.33;100.00;98410.67;1785765;79;28091;-86
2022/08/25 04:46:35;;;;;;;24.50;12.53;;;;;;;20.31;100.00;98406.84;1779403;78;28078;-86
2022/08/25 04:49:04;;;;;;;24.10;11.55;;;;;;;20.32;100.00;98406.34;1759734;79;28165;-86
2022/08/25 04:51:39;;;;;;;33.85;12.82;;;;;;;20.31;100.00;98409.50;1783562;78;28073;-87
2022/08/25 04:54:08;;;;;;;22.62;12.45;;;;;;;20.34;100.00;98413.17;1780401;79;28124;-86
2022/08/25 04:56:40;;;;;;;30.43;13.10;;;;;;;20.34;100.00;98411.01;1756692;79;28109;-86
2022/08/25 04:59:15;;;;;;;25.05;12.15;;;;;;;20.38;100.00;98406.50;1786857;79;28605;-87
2022/08/25 05:01:45;;;;;;;28.05;13.28;;;;;;;20.44;100.00;98412.48;1779743;79;28085;-87
2022/08/25 05:04:16;;;;;;;29.48;13.62;;;;;;;20.51;100.00;98409.14;1781952;79;28022;-87
2022/08/25 05:06:43;;;;;;;33.78;14.30;;;;;;;20.52;100.00;98414.77;1787449;79;28029;-87
2022/08/25 05:09:14;;;;;;;35.30;13.30;;;;;;;20.52;100.00;98409.45;1778460;79;28175;-87
2022/08/25 05:11:42;;;;;;;31.42;13.05;;;;;;;20.56;100.00;98417.44;1781152;78;28111;-87
2022/08/25 05:14:10;;;;;;;26.57;12.80;;;;;;;20.54;100.00;98415.44;1785717;79;28142;-87
2022/08/25 05:16:43;;;;;;;29.90;12.33;;;;;;;20.55;100.00;98411.78;1786870;79;28100;-87
2022/08/25 05:19:10;;;;;;;28.50;11.60;;;;;;;20.56;100.00;98408.13;1782363;79;28105;-87
2022/08/25 05:21:36;;;;;;;33.15;12.23;;;;;;;20.61;100.00;98404.45;1790544;79;28108;-87
2022/08/25 05:24:03;;;;;;;32.78;12.68;;;;;;;20.64;100.00;98405.43;1778309;78;28101;-87
2022/08/25 05:26:36;;;;;;;26.62;12.50;;;;;;;20.66;100.00;98412.75;1782484;78;28112;-87
2022/08/25 05:29:04;;;;;;;30.57;12.18;;;;;;;20.67;100.00;98411.75;1787983;79;28096;-87
2022/08/25 05:31:31;;;;;;;34.08;13.72;;;;;;;20.66;100.00;98414.91;1788214;78;28005;-88
2022/08/25 05:33:58;;;;;;;29.18;12.65;;;;;;;20.67;100.00;98411.75;1808132;78;28148;-87
2022/08/25 05:36:26;;;;;;;31.87;14.68;;;;;;;20.66;100.00;98410.92;1807708;78;28142;-87
2022/08/25 05:39:00;;;;;;;27.87;12.10;;;;;;;20.66;100.00;98406.94;1800681;78;28538;-87
2022/08/25 05:41:29;;;;;;;28.40;13.40;;;;;;;20.67;100.00;98409.92;1807827;78;28073;-87
2022/08/25 05:43:55;;;;;;;28.52;12.73;;;;;;;20.68;100.00;98420.03;1806782;78;28103;-87
2022/08/25 05:46:25;;;;;;;27.27;12.25;;;;;;;20.66;100.00;98419.40;1811727;77;28070;-87
2022/08/25 05:48:53;;;;;;;30.65;12.58;;;;;;;20.63;100.00;98421.05;1806807;77;28004;-87
2022/08/25 05:51:25;;;;;;;30.48;12.93;;;;;;;20.63;100.00;98415.73;1802969;78;28057;-87
2022/08/25 05:53:52;;;;;;;25.82;13.03;;;;;;;20.62;100.00;98415.42;1808367;78;28079;-87
2022/08/25 05:56:24;;;;;;;27.40;12.53;;;;;;;20.54;100.00;98414.11;1813451;78;28010;-87
2022/08/25 05:58:53;;;;;;;26.45;12.13;;;;;;;20.45;100.00;98422.62;1805739;78;28151;-87
2022/08/25 06:04:16;;;;;;;23.65;12.43;;;;;;;20.43;100.00;98421.45;1806729;78;28133;-87
2022/08/25 06:06:42;;;;;;;25.50;13.72;;;;;;;20.47;100.00;98421.92;1803411;78;28109;-87
2022/08/25 06:09:10;;;;;;;27.70;12.75;;;;;;;20.47;100.00;98419.27;1806523;78;28160;-87
2022/08/25 06:11:40;;;;;;;21.68;11.93;;;;;;;20.45;100.00;98419.46;1804261;78;28076;-88
2022/08/25 06:14:08;;;;;;;17.82;11.43;;;;;;;20.51;100.00;98420.58;1804096;78;28106;-87
2022/08/25 06:16:50;;;;;;;23.15;11.75;;;;;;;20.59;100.00;98419.24;1808256;78;28125;-87
2022/08/25 06:19:15;;;;;;;19.85;10.45;;;;;;;20.63;100.00;98413.08;1806103;78;28069;-87
2022/08/25 06:21:47;;;;;;;22.02;11.30;;;;;;;20.75;100.00;98414.37;1805542;78;28053;-87
2022/08/25 06:24:11;;;;;;;23.90;11.88;;;;;;;20.85;100.00;98414.49;1784535;78;28191;-87
2022/08/25 06:26:37;;;;;;;26.90;11.30;;;;;;;20.84;100.00;98421.30;1802890;78;28086;-87
2022/08/25 06:29:04;;;;;;;19.75;10.43;;;;;;;20.92;100.00;98421.79;1805139;78;28108;-88
2022/08/25 06:31:30;;;;;;;24.55;11.30;;;;;;;20.91;100.00;98423.62;1803335;78;27974;-88
2022/08/25 06:34:05;;;;;;;20.08;11.20;;;;;;;20.85;100.00;98424.30;1824243;77;28064;-88
2022/08/25 06:36:36;;;;;;;26.20;11.25;;;;;;;20.80;100.00;98423.49;1822290;77;28194;-87
2022/08/25 06:39:03;;;;;;;23.67;11.80;;;;;;;20.72;100.00;98420.05;1824962;77;28179;-87
2022/08/25 06:41:29;;;;;;;23.47;12.15;;;;;;;20.62;100.00;98422.87;1826469;77;28129;-87
2022/08/25 06:44:02;;;;;;;24.72;12.35;;;;;;;20.62;100.00;98420.22;1832379;77;28056;-87
2022/08/25 06:46:29;;;;;;;25.90;10.85;;;;;;;20.63;100.00;98419.72;1824266;77;28113;-87
2022/08/25 06:48:56;;;;;;;24.20;11.95;;;;;;;20.67;100.00;98427.71;1823308;77;28064;-87
2022/08/25 06:51:25;;;;;;;23.65;11.38;;;;;;;20.71;100.00;98430.34;1826187;77;28189;-87
2022/08/25 06:53:57;;;;;;;22.75;11.65;;;;;;;20.79;100.00;98431.14;1824367;77;28034;-87
2022/08/25 06:56:24;;;;;;;22.22;11.93;;;;;;;20.92;100.00;98429.27;1826243;77;28160;-87
2022/08/25 06:58:50;;;;;;;26.45;12.58;;;;;;;20.86;100.00;98431.29;1827726;77;28081;-87
2022/08/25 07:01:26;;;;;;;23.00;11.85;;;;;;;20.76;100.00;98426.17;1830324;77;28015;-87
2022/08/25 07:03:58;;;;;;;21.97;11.28;;;;;;;20.72;100.00;98424.87;1821293;77;28025;-87
2022/08/25 07:06:30;;;;;;;18.55;10.75;;;;;;;20.81;100.00;98425.16;1823880;77;28055;-87
2022/08/25 07:08:57;;;;;;;21.60;10.15;;;;;;;20.91;100.00;98420.95;1828448;77;28100;-87
2022/08/25 07:11:33;;;;;;;23.92;10.58;;;;;;;20.98;100.00;98422.43;1825744;77;28140;-87
2022/08/25 07:14:01;;;;;;;20.55;10.15;;;;;;;21.07;100.00;98423.55;1823284;77;28191;-87
2022/08/25 07:16:30;;;;;;;19.30;10.40;;;;;;;21.26;100.00;98423.66;1821262;77;28074;-87
2022/08/25 07:19:00;;;;;;;20.23;10.32;;;;;;;21.37;100.00;98424.59;1826231;76;28074;-87
2022/08/25 07:21:28;;;;;;;18.92;9.65;;;;;;;21.36;100.00;98422.10;1823547;77;28100;-87
2022/08/25 07:24:03;;;;;;;23.65;11.12;;;;;;;21.42;100.00;98429.39;1823790;77;28151;-87
2022/08/25 07:26:33;;;;;;;22.32;10.15;;;;;;;21.46;100.00;98422.70;1825156;77;28078;-87
2022/08/25 07:29:05;;;;;;;19.32;9.70;;;;;;;21.49;100.00;98422.37;1834048;77;28058;-87
2022/08/25 07:31:33;;;;;;;22.70;10.03;;;;;;;21.56;100.00;98426.80;1828917;77;28022;-87
2022/08/25 07:36:44;;;;;;;24.85;11.65;;;;;;;21.75;100.00;98433.50;1789570;78;28120;-87
2022/08/25 07:39:17;;;;;;;25.57;11.75;;;;;;;21.87;100.00;98431.25;1792126;79;28182;-87
2022/08/25 07:41:45;;;;;;;21.93;10.90;;;;;;;21.86;100.00;98431.75;1791817;77;28113;-87
2022/08/25 07:44:15;;;;;;;21.12;11.33;;;;;;;21.85;100.00;98427.42;1791499;78;28156;-88
2022/08/25 07:46:41;;;;;;;23.42;12.13;;;;;;;21.83;100.00;98428.59;1791702;79;28069;-87
2022/08/25 07:49:08;;;;;;;22.67;10.58;;;;;;;21.89;100.00;98432.71;1788857;79;28058;-87
2022/08/25 07:51:34;;;;;;;20.85;11.12;;;;;;;21.96;100.00;98431.53;1789514;79;28145;-87
2022/08/25 07:54:09;;;;;;;22.37;12.28;;;;;;;21.99;100.00;98433.33;1793687;79;28191;-87
2022/08/25 07:56:36;;;;;;;24.52;11.65;;;;;;;22.04;100.00;98432.28;1790849;78;28560;-87
2022/08/25 07:59:03;;;;;;;24.50;11.70;;;;;;;22.07;100.00;98434.60;1789307;79;28006;-87
2022/08/25 08:01:29;;;;;;;24.43;11.33;;;;;;;22.03;100.00;98432.48;1791346;78;28069;-87
2022/08/25 08:04:06;;;;;;;24.67;12.20;;;;;;;21.99;100.00;98425.33;1789367;79;28077;-88
2022/08/25 08:06:35;;;;;;;21.95;10.95;;;;;;;21.97;100.00;98430.03;1788628;78;28011;-87
2022/08/25 08:09:01;;;;;;;22.07;11.65;;;;;;;22.05;100.00;98421.95;1790003;79;28033;-87
2022/08/25 08:11:39;;;;;;;22.82;10.50;;;;;;;22.21;100.00;98424.14;1788129;79;28080;-88
2022/08/25 08:14:03;;;;;;;21.07;11.22;;;;;;;22.33;100.00;98420.03;1792151;78;28117;-87
2022/08/25 08:16:32;;;;;;;22.02;11.57;;;;;;;22.45;100.00;98423.41;1793151;78;28161;-87
2022/08/25 08:19:01;;;;;;;23.15;10.75;;;;;;;22.64;100.00;98420.69;1787105;78;28058;-87
2022/08/25 08:21:36;;;;;;;18.17;10.68;;;;;;;22.76;100.00;98415.25;1788812;79;28069;-88
2022/08/25 08:24:03;;;;;;;18.05;10.58;;;;;;;22.86;100.00;98414.97;1789488;79;28183;-87
2022/08/25 08:26:29;;;;;;;17.60;9.73;;;;;;;22.80;100.00;98416.53;1786810;78;28069;-88
2022/08/25 08:28:56;;;;;;;17.40;11.08;;;;;;;22.73;100.00;98418.30;1790079;79;28065;-87
2022/08/25 08:31:27;;;;;;;18.70;9.13;;;;;;;22.68;100.00;98422.51;1784769;79;28086;-87
2022/08/25 08:33:59;;;;;;;18.62;9.28;;;;;;;22.62;100.00;98420.06;1814460;77;28133;-87
2022/08/25 08:36:27;;;;;;;16.42;9.10;;;;;;;22.59;100.00;98421.75;1827785;77;28143;-88
2022/08/25 08:38:55;;;;;;;16.85;8.80;;;;;;;22.62;100.00;98425.91;1828785;77;28125;-88
2022/08/25 08:44:45;;;;;;;17.07;8.45;;;;;;;22.54;100.00;98424.97;1817914;77;28059;-87
2022/08/25 08:47:43;;;;;;;15.45;8.25;;;;;;;22.66;100.00;98421.34;1819186;77;28101;-87
2022/08/25 08:50:40;;;;;;;19.20;8.13;;;;;;;22.64;100.00;98414.56;1740981;80;28069;-87
2022/08/25 08:53:19;;;;;;;16.82;8.75;;;;;;;22.71;100.00;98416.31;1740610;82;28129;-88
2022/08/25 08:55:49;;;;;;;18.92;8.38;;;;;;;22.90;100.00;98416.27;1736827;80;28175;-88
2022/08/25 08:58:48;;;;;;;19.37;9.05;;;;;;;22.90;100.00;98411.77;1740356;80;28166;-87
2022/08/25 09:01:27;;;;;;;18.40;9.35;;;;;;;22.81;100.00;98416.86;1739331;80;28203;-88
2022/08/25 09:04:06;;;;;;;18.23;8.75;;;;;;;22.78;100.00;98415.08;1736677;81;28100;-87
2022/08/25 09:06:37;;;;;;;17.57;7.90;;;;;;;22.90;100.00;98420.28;1727551;82;28069;-88
2022/08/25 09:09:13;;;;;;;19.42;8.85;;;;;;;23.06;100.00;98421.91;1809597;77;28081;-88
2022/08/25 09:12:08;;;;;;;19.48;8.20;;;;;;;23.00;100.00;98417.31;1815678;77;28163;-88
2022/08/25 09:14:54;;;;;;;18.12;7.60;;;;;;;22.97;100.00;98412.33;1825811;77;28074;-88
2022/08/25 09:17:42;;;;;;;18.52;8.50;;;;;;;23.09;100.00;98413.52;1821626;77;28017;-87
2022/08/25 09:20:35;;;;;;;16.77;7.85;;;;;;;23.29;100.00;98410.06;1820730;77;28149;-88
2022/08/25 09:23:23;;;;;;;16.82;7.67;;;;;;;23.51;100.00;98416.29;1821581;77;28178;-88
2022/08/25 09:26:06;;;;;;;15.93;7.97;;;;;;;23.59;100.00;98414.84;1821121;77;28181;-87
2022/08/25 09:28:52;;;;;;;19.50;8.33;;;;;;;23.55;100.00;98420.77;1825755;77;28061;-88
2022/08/25 09:31:27;;;;;;;14.20;7.60;;;;;;;23.58;100.00;98421.20;1818799;77;28072;-87
2022/08/25 09:33:56;;;;;;;17.73;8.13;;;;;;;23.66;100.00;98418.92;1813170;77;28011;-87
2022/08/25 09:36:25;;;;;;;17.48;8.28;;;;;;;23.71;100.00;98416.00;1809929;77;28104;-88
2022/08/25 09:38:53;;;;;;;14.20;7.60;;;;;;;23.95;100.00;98415.27;1821488;76;28088;-87
2022/08/25 09:41:57;;;;;;;14.33;7.95;;;;;;;24.15;100.00;98416.28;1814741;78;28029;-88
2022/08/25 09:44:27;;;;;;;17.55;7.70;;;;;;;24.26;100.00;98412.28;1811575;78;28181;-89
2022/08/25 09:47:00;;;;;;;16.10;7.95;;;;;;;24.34;100.00;98413.46;1811043;78;28153;-89
2022/08/25 09:49:36;;;;;;;16.20;7.78;;;;;;;24.29;100.00;98415.89;1815446;78;28041;-89
2022/08/25 09:52:25;;;;;;;16.48;7.80;;;;;;;24.24;100.00;98409.80;1807576;78;28121;-89
2022/08/25 09:55:13;;;;;;;14.15;7.75;;;;;;;24.30;100.00;98411.70;1806240;78;28069;-89
2022/08/25 09:57:57;;;;;;;19.37;7.78;;;;;;;24.37;100.00;98407.23;1816828;78;28152;-89
2022/08/25 10:00:30;;;;;;;19.48;7.92;;;;;;;24.53;100.00;98403.42;1814610;77;28088;-89
2022/08/25 10:03:19;;;;;;;16.52;7.00;;;;;;;24.60;100.00;98404.30;1821439;78;28070;-89
2022/08/25 10:05:57;;;;;;;18.90;7.60;;;;;;;24.47;100.00;98398.85;1811842;76;28078;-88
2022/08/25 10:08:54;;;;;;;17.12;7.87;;;;;;;24.36;100.00;98398.05;1815711;78;28078;-89
2022/08/25 10:11:40;;;;;;;13.65;8.13;;;;;;;24.31;100.00;98391.13;1812800;77;28086;-88
2022/08/25 10:14:16;;;;;;;17.87;7.33;;;;;;;24.31;100.00;98385.78;1815541;78;28102;-88
2022/08/25 10:16:45;;;;;;;17.15;7.08;;;;;;;24.27;100.00;98380.00;1817823;77;27999;-89
2022/08/25 10:19:26;;;;;;;17.57;7.67;;;;;;;24.16;100.00;98373.82;1808215;77;28231;-89
2022/08/25 10:22:12;;;;;;;15.80;7.08;;;;;;;24.13;100.00;98375.02;1814443;78;28130;-88
2022/08/25 10:24:44;;;;;;;18.37;6.87;;;;;;;24.14;100.00;98371.84;1808814;77;28118;-88
2022/08/25 10:27:46;;;;;;;16.67;6.90;;;;;;;24.08;100.00;98368.61;1815617;78;28113;-89
2022/08/25 10:30:33;;;;;;;18.25;7.17;;;;;;;24.11;100.00;98364.22;1820291;77;28077;-88
2022/08/25 10:33:19;;;;;;;15.15;6.70;;;;;;;24.33;100.00;98367.16;1811575;77;28155;-89
2022/08/25 10:35:58;;;;;;;18.00;6.65;;;;;;;24.40;100.00;98364.02;1820085;78;28046;-88
2022/08/25 10:38:32;;;;;;;14.58;6.20;;;;;;;24.43;100.00;98360.97;1803056;78;28051;-88
2022/08/25 10:41:33;;;;;;;16.32;6.47;;;;;;;24.57;100.00;98355.17;1810616;78;28048;-88
2022/08/25 10:47:45;;;;;;;17.00;6.95;;;;;;;24.58;100.00;98353.64;1818713;77;28129;-88
2022/08/25 10:50:33;;;;;;;20.30;7.30;;;;;;;24.57;100.00;98346.63;1812530;78;28017;-89
2022/08/25 10:53:21;;;;;;;21.73;7.10;;;;;;;24.55;100.00;98353.19;1804852;78;28093;-88
2022/08/25 10:56:02;;;;;;;18.30;7.35;;;;;;;24.52;100.00;98341.55;1794818;79;28147;-88
2022/08/25 10:58:31;;;;;;;20.55;7.17;;;;;;;24.55;100.00;98340.64;1796408;78;28120;-88
2022/08/25 11:01:20;;;;;;;17.00;6.35;;;;;;;24.60;100.00;98341.41;1779250;79;28069;-88
2022/08/25 11:03:50;;;;;;;13.80;6.58;;;;;;;24.60;100.00;98338.73;1796637;78;28110;-88
2022/08/25 11:06:26;;;;;;;17.25;5.78;;;;;;;24.55;100.00;98335.28;1805200;78;28095;-89
2022/08/25 11:08:56;;;;;;;16.55;6.75;;;;;;;24.66;100.00;98325.06;1811225;78;28151;-87
2022/08/25 11:11:27;;;;;;;17.65;5.95;;;;;;;24.68;100.00;98323.83;1806206;77;28164;-88
2022/08/25 11:14:06;;;;;;;17.30;6.30;;;;;;;24.75;100.00;98319.84;1807476;78;28541;-88
2022/08/25 11:16:36;;;;;;;19.15;6.90;;;;;;;24.72;100.00;98313.03;1751422;81;28089;-88
2022/08/25 11:19:10;;;;;;;14.78;6.15;;;;;;;24.78;100.00;98300.70;1746562;80;28082;-88
2022/08/25 11:22:14;;;;;;;18.95;6.72;;;;;;;24.92;100.00;98305.12;1740856;81;28072;-89
2022/08/25 11:24:53;;;;;;;18.52;6.67;;;;;;;25.00;100.00;98307.59;1767475;80;28146;-88
2022/08/25 11:27:31;;;;;;;20.08;5.90;;;;;;;25.22;100.00;98305.08;1749139;81;28040;-89
2022/08/25 11:30:07;;;;;;;18.50;6.15;;;;;;;25.27;100.00;98303.13;1741753;81;28052;-88
2022/08/25 11:32:38;;;;;;;18.35;6.58;;;;;;;25.22;100.00;98300.23;1755668;79;28056;-89
2022/08/25 11:35:09;;;;;;;21.30;6.45;;;;;;;25.29;100.00;98301.08;1825711;77;28136;-89
2022/08/25 11:37:44;;;;;;;18.37;6.42;;;;;;;25.31;100.00;98300.38;1827682;77;28153;-89
2022/08/25 11:40:44;;;;;;;19.50;6.90;;;;;;;25.41;100.00;98300.28;1794251;77;28227;-88
2022/08/25 11:43:25;;;;;;;15.38;6.17;;;;;;;25.50;100.00;98290.69;1753717;80;28081;-89
2022/08/25 11:46:11;;;;;;;19.30;7.20;;;;;;;25.52;100.00;98289.47;1813994;77;28139;-89
2022/08/25 11:49:05;;;;;;;20.45;6.72;;;;;;;25.65;100.00;98288.14;1822143;77;28134;-88
2022/08/25 11:51:46;;;;;;;18.35;5.97;;;;;;;25.70;100.00;98274.94;1822916;77;28114;-88
2022/08/25 11:54:44;;;;;;;15.23;5.67;;;;;;;25.93;100.00;98282.55;1831628;77;28105;-89